createdAt,value
2023-01-29T00:00:25.384Z,18.77
2023-01-29T00:02:52.185Z,18.27
2023-01-29T00:05:27.984Z,16.38
2023-01-29T00:07:56.889Z,15.75
2023-01-29T00:10:25.458Z,15.33
2023-01-29T00:12:52.748Z,18.58
2023-01-29T00:15:19.554Z,16.70
2023-01-29T00:17:46.029Z,15.73
2023-01-29T00:20:12.897Z,19.05
2023-01-29T00:22:39.436Z,18.23
2023-01-29T00:25:06.453Z,17.65
2023-01-29T00:27:32.946Z,14.90
2023-01-29T00:30:19.326Z,20.23
2023-01-29T00:32:46.151Z,17.70
2023-01-29T00:35:12.683Z,16.80
2023-01-29T00:37:39.187Z,13.25
2023-01-29T00:40:06.294Z,13.98
2023-01-29T00:42:52.064Z,15.43
2023-01-29T00:45:18.674Z,16.70
2023-01-29T00:47:45.204Z,13.70
2023-01-29T00:50:12.457Z,15.30
2023-01-29T00:52:41.085Z,18.52
2023-01-29T00:55:09.700Z,17.25
2023-01-29T00:57:37.127Z,18.83
2023-01-29T01:00:06.182Z,18.03
2023-01-29T01:02:51.407Z,18.40
2023-01-29T01:05:18.593Z,15.73
2023-01-29T01:07:49.922Z,12.70
2023-01-29T01:10:22.795Z,15.63
2023-01-29T01:12:53.522Z,14.53
2023-01-29T01:15:21.933Z,17.55
2023-01-29T01:17:51.588Z,16.40
2023-01-29T01:20:18.556Z,13.15
2023-01-29T01:22:45.278Z,15.43
2023-01-29T01:25:11.860Z,15.67
2023-01-29T01:27:41.201Z,16.23
2023-01-29T01:30:11.054Z,12.50
2023-01-29T01:32:37.760Z,14.43
2023-01-29T01:35:04.573Z,15.52
2023-01-29T01:37:31.087Z,16.60
2023-01-29T01:39:58.632Z,14.57
2023-01-29T01:42:30.436Z,14.45
2023-01-29T01:45:06.347Z,15.77
2023-01-29T01:47:47.176Z,17.70
2023-01-29T01:50:25.839Z,15.40
2023-01-29T01:52:59.871Z,14.48
2023-01-29T01:55:30.107Z,14.30
2023-01-29T01:58:22.935Z,15.18
2023-01-29T02:00:50.154Z,14.68
2023-01-29T02:03:37.946Z,15.90
2023-01-29T02:06:23.333Z,17.88
2023-01-29T02:09:13.951Z,17.13
2023-01-29T02:11:40.873Z,14.82
2023-01-29T02:14:07.780Z,16.67
2023-01-29T02:16:36.040Z,13.70
2023-01-29T02:19:07.108Z,19.30
2023-01-29T02:22:05.016Z,15.25
2023-01-29T02:24:50.195Z,13.77
2023-01-29T02:27:26.071Z,17.88
2023-01-29T02:30:07.340Z,12.87
2023-01-29T02:32:58.590Z,14.38
2023-01-29T02:35:42.555Z,17.00
2023-01-29T02:38:27.726Z,14.07
2023-01-29T02:40:59.747Z,13.00
2023-01-29T02:43:42.079Z,15.17
2023-01-29T02:46:29.147Z,17.50
2023-01-29T02:49:00.289Z,15.43
2023-01-29T02:51:55.460Z,17.75
2023-01-29T02:54:29.167Z,14.90
2023-01-29T02:57:17.669Z,15.73
2023-01-29T02:59:58.575Z,14.43
2023-01-29T03:02:35.799Z,21.88
2023-01-29T03:05:10.383Z,12.60
2023-01-29T03:07:42.456Z,16.20
2023-01-29T03:10:18.327Z,18.23
2023-01-29T03:12:51.034Z,15.60
2023-01-29T03:15:25.161Z,17.85
2023-01-29T03:18:01.333Z,17.65
2023-01-29T03:20:33.561Z,19.70
2023-01-29T03:23:07.033Z,16.43
2023-01-29T03:25:54.607Z,15.80
2023-01-29T03:28:41.947Z,16.45
2023-01-29T03:31:30.831Z,15.70
2023-01-29T03:34:24.022Z,20.08
2023-01-29T03:37:03.668Z,19.67
2023-01-29T03:39:30.727Z,20.58
2023-01-29T03:42:15.712Z,20.80
2023-01-29T03:44:51.056Z,17.42
2023-01-29T03:47:32.672Z,21.08
2023-01-29T03:50:03.690Z,21.43
2023-01-29T03:52:51.655Z,19.58
2023-01-29T03:55:22.873Z,21.25
2023-01-29T03:58:00.911Z,18.27
2023-01-29T04:00:32.002Z,16.17
2023-01-29T04:03:11.442Z,19.23
2023-01-29T04:06:09.929Z,21.50
2023-01-29T04:08:46.467Z,17.92
2023-01-29T04:11:16.437Z,19.30
2023-01-29T04:13:43.663Z,18.67
2023-01-29T04:16:16.860Z,20.03
2023-01-29T04:18:48.401Z,16.58
2023-01-29T04:21:15.867Z,21.67
2023-01-29T04:23:42.371Z,21.73
2023-01-29T04:26:21.871Z,19.50
2023-01-29T04:28:54.193Z,18.07
2023-01-29T04:31:26.786Z,21.20
2023-01-29T04:34:01.483Z,18.27
2023-01-29T04:36:46.451Z,21.55
2023-01-29T04:39:25.494Z,21.15
2023-01-29T04:42:04.076Z,21.13
2023-01-29T04:44:44.788Z,21.02
2023-01-29T04:47:30.911Z,19.90
2023-01-29T04:50:19.441Z,20.70
2023-01-29T04:53:04.563Z,17.95
2023-01-29T04:55:43.539Z,20.17
2023-01-29T04:58:37.191Z,19.95
2023-01-29T05:01:06.412Z,19.20
2023-01-29T05:03:35.251Z,21.67
2023-01-29T05:06:02.985Z,23.02
2023-01-29T05:08:31.925Z,21.23
2023-01-29T05:11:00.185Z,19.25
2023-01-29T05:13:31.150Z,22.45
2023-01-29T05:16:08.410Z,28.27
2023-01-29T05:18:35.930Z,19.42
2023-01-29T05:21:06.488Z,16.50
2023-01-29T05:23:32.954Z,18.48
2023-01-29T05:25:59.571Z,24.33
2023-01-29T05:28:26.062Z,19.33
2023-01-29T05:30:55.511Z,22.48
2023-01-29T05:33:28.178Z,21.57
2023-01-29T05:35:55.824Z,25.15
2023-01-29T05:38:23.331Z,20.10
2023-01-29T05:40:50.136Z,18.40
2023-01-29T05:43:22.841Z,19.27
2023-01-29T05:46:00.372Z,19.07
2023-01-29T05:48:28.926Z,23.35
2023-01-29T05:51:00.579Z,19.25
2023-01-29T05:53:28.744Z,21.60
2023-01-29T05:55:57.152Z,19.02
2023-01-29T05:58:23.755Z,24.23
2023-01-29T06:00:50.256Z,23.05
2023-01-29T06:03:17.013Z,17.92
2023-01-29T06:05:43.498Z,22.95
2023-01-29T06:08:10.030Z,20.50
2023-01-29T06:10:36.564Z,19.10
2023-01-29T06:13:03.336Z,16.20
2023-01-29T06:15:29.828Z,21.95
2023-01-29T06:17:57.203Z,22.83
2023-01-29T06:20:24.644Z,19.08
2023-01-29T06:22:51.166Z,20.33
2023-01-29T06:25:17.580Z,20.90
2023-01-29T06:27:44.219Z,20.60
2023-01-29T06:30:11.379Z,21.85
2023-01-29T06:32:37.871Z,15.68
2023-01-29T06:35:04.708Z,18.47
2023-01-29T06:37:31.174Z,17.25
2023-01-29T06:39:57.669Z,23.85
2023-01-29T06:42:27.834Z,17.08
2023-01-29T06:44:57.456Z,20.08
2023-01-29T06:47:24.653Z,18.10
2023-01-29T06:49:51.126Z,20.60
2023-01-29T06:52:17.571Z,17.13
2023-01-29T06:54:44.063Z,15.43
2023-01-29T06:57:10.629Z,17.52
2023-01-29T06:59:37.058Z,18.33
2023-01-29T07:02:04.105Z,17.15
2023-01-29T07:04:30.757Z,15.95
2023-01-29T07:06:59.396Z,17.00
2023-01-29T07:09:25.849Z,16.52
2023-01-29T07:11:52.303Z,15.13
2023-01-29T07:14:18.728Z,17.33
2023-01-29T07:16:45.242Z,22.23
2023-01-29T07:19:11.771Z,16.45
2023-01-29T07:21:38.222Z,15.35
2023-01-29T07:24:04.895Z,19.73
2023-01-29T07:26:31.333Z,17.65
2023-01-29T07:28:57.751Z,15.82
2023-01-29T07:31:24.404Z,14.00
2023-01-29T07:33:50.914Z,15.90
2023-01-29T07:36:17.453Z,17.27
2023-01-29T07:38:43.947Z,14.13
2023-01-29T07:41:11.731Z,13.85
2023-01-29T07:43:38.182Z,20.35
2023-01-29T07:46:05.218Z,16.63
2023-01-29T07:48:31.815Z,20.37
2023-01-29T07:50:58.919Z,14.02
2023-01-29T07:53:27.836Z,18.27
2023-01-29T07:55:54.279Z,21.35
2023-01-29T07:58:20.844Z,16.10
2023-01-29T08:00:47.289Z,14.40
2023-01-29T08:03:17.426Z,18.23
2023-01-29T08:05:44.880Z,17.50
2023-01-29T08:08:11.496Z,17.90
2023-01-29T08:10:39.457Z,15.60
2023-01-29T08:13:06.632Z,17.47
2023-01-29T08:15:33.473Z,17.15
2023-01-29T08:18:01.927Z,17.65
2023-01-29T08:20:28.890Z,16.45
2023-01-29T08:23:15.649Z,18.98
2023-01-29T08:25:42.654Z,13.77
2023-01-29T08:28:09.776Z,15.50
2023-01-29T08:30:36.232Z,16.20
2023-01-29T08:33:03.751Z,17.35
2023-01-29T08:35:30.309Z,19.88
2023-01-29T08:37:59.475Z,17.70
2023-01-29T08:40:27.648Z,19.38
2023-01-29T08:43:02.515Z,11.15
2023-01-29T08:45:31.153Z,23.80
2023-01-29T08:47:57.645Z,15.90
2023-01-29T08:50:24.337Z,17.83
2023-01-29T08:52:51.048Z,12.60
2023-01-29T08:55:41.814Z,18.70
2023-01-29T08:58:10.773Z,19.83
2023-01-29T09:00:37.277Z,15.90
2023-01-29T09:03:03.932Z,13.63
2023-01-29T09:05:30.544Z,14.73
2023-01-29T09:07:58.039Z,15.77
2023-01-29T09:10:24.921Z,15.55
2023-01-29T09:12:51.428Z,15.85
2023-01-29T09:15:18.315Z,16.97
2023-01-29T09:17:45.180Z,12.27
2023-01-29T09:20:11.831Z,13.80
2023-01-29T09:22:38.294Z,16.67
2023-01-29T09:25:05.282Z,17.58
2023-01-29T09:27:31.916Z,15.47
2023-01-29T09:29:58.413Z,16.95
2023-01-29T09:32:51.999Z,15.95
2023-01-29T09:35:11.346Z,14.98
2023-01-29T09:37:37.813Z,14.75
2023-01-29T09:40:04.989Z,15.87
2023-01-29T09:42:44.061Z,14.07
2023-01-29T09:45:16.224Z,16.05
2023-01-29T09:47:44.253Z,17.92
2023-01-29T09:50:19.234Z,18.08
2023-01-29T09:52:53.212Z,14.93
2023-01-29T09:55:32.560Z,16.83
2023-01-29T09:58:25.466Z,16.73
2023-01-29T10:01:08.187Z,14.88
2023-01-29T10:03:53.183Z,18.60
2023-01-29T10:06:47.757Z,18.33
2023-01-29T10:09:20.935Z,16.02
2023-01-29T10:12:02.978Z,16.95
2023-01-29T10:14:56.030Z,21.05
2023-01-29T10:17:50.443Z,16.88
2023-01-29T10:20:47.659Z,14.60
2023-01-29T10:23:34.613Z,19.38
2023-01-29T10:26:01.340Z,13.82
2023-01-29T10:28:48.344Z,14.20
2023-01-29T10:31:39.040Z,16.33
2023-01-29T10:34:24.750Z,16.30
2023-01-29T10:36:51.232Z,14.95
2023-01-29T10:39:20.608Z,15.13
2023-01-29T10:42:05.479Z,13.90
2023-01-29T10:44:39.525Z,14.57
2023-01-29T10:47:21.285Z,16.70
2023-01-29T10:49:59.913Z,15.02
2023-01-29T10:53:03.652Z,12.05
2023-01-29T10:55:47.976Z,17.88
2023-01-29T10:58:22.170Z,23.65
2023-01-29T11:00:49.687Z,21.00
2023-01-29T11:03:28.068Z,18.40
2023-01-29T11:06:11.592Z,14.63
2023-01-29T11:09:25.667Z,16.98
2023-01-29T11:12:01.222Z,16.75
2023-01-29T11:14:45.611Z,19.70
2023-01-29T11:17:17.285Z,19.67
2023-01-29T11:19:46.632Z,19.00
2023-01-29T11:22:20.285Z,20.25
2023-01-29T11:25:07.657Z,22.70
2023-01-29T11:27:43.801Z,19.93
2023-01-29T11:30:31.893Z,19.60
2023-01-29T11:33:10.465Z,21.58
2023-01-29T11:35:37.078Z,18.55
2023-01-29T11:38:09.536Z,18.80
2023-01-29T11:40:39.769Z,22.23
2023-01-29T11:43:13.623Z,23.60
2023-01-29T11:45:40.668Z,25.02
2023-01-29T11:48:15.666Z,21.40
2023-01-29T11:50:42.905Z,24.65
2023-01-29T11:53:34.502Z,21.97
2023-01-29T11:56:04.186Z,20.92
2023-01-29T11:58:34.507Z,21.40
2023-01-29T12:01:01.532Z,18.15
2023-01-29T12:03:36.687Z,24.40
2023-01-29T12:06:07.349Z,22.10
2023-01-29T12:08:38.849Z,25.73
2023-01-29T12:11:33.265Z,18.65
2023-01-29T12:14:02.120Z,21.33
2023-01-29T12:16:52.904Z,19.50
2023-01-29T12:19:45.930Z,20.63
2023-01-29T12:22:18.639Z,19.15
2023-01-29T12:24:53.857Z,20.38
2023-01-29T12:27:46.764Z,20.90
2023-01-29T12:30:23.374Z,20.35
2023-01-29T12:33:31.836Z,26.10
2023-01-29T12:36:31.529Z,23.60
2023-01-29T12:38:59.257Z,26.83
2023-01-29T12:41:40.337Z,22.63
2023-01-29T12:44:45.162Z,22.08
2023-01-29T12:47:31.289Z,22.17
2023-01-29T12:50:03.483Z,23.63
2023-01-29T12:52:52.206Z,22.13
2023-01-29T12:55:47.912Z,21.75
2023-01-29T12:58:20.041Z,20.33
2023-01-29T13:00:51.041Z,23.67
2023-01-29T13:03:17.764Z,22.08
2023-01-29T13:05:58.008Z,24.40
2023-01-29T13:08:32.484Z,30.77
2023-01-29T13:11:02.860Z,24.63
2023-01-29T13:13:54.002Z,23.73
2023-01-29T13:16:25.106Z,21.92
2023-01-29T13:19:05.899Z,24.45
2023-01-29T13:21:40.726Z,23.35
2023-01-29T13:24:23.038Z,21.30
2023-01-29T13:26:49.946Z,23.10
2023-01-29T13:29:25.393Z,23.60
2023-01-29T13:32:04.735Z,21.75
2023-01-29T13:34:43.959Z,24.55
2023-01-29T13:37:28.202Z,24.63
2023-01-29T13:39:56.296Z,25.23
2023-01-29T13:42:49.032Z,27.05
2023-01-29T13:45:25.239Z,28.67
2023-01-29T13:50:51.633Z,20.83
2023-01-29T13:53:40.364Z,22.47
2023-01-29T13:56:34.613Z,23.60
2023-01-29T13:59:02.284Z,23.40
2023-01-29T14:01:46.887Z,21.42
2023-01-29T14:04:19.462Z,21.65
2023-01-29T14:06:48.758Z,19.60
2023-01-29T14:10:20.082Z,20.05
2023-01-29T14:12:49.052Z,24.63
2023-01-29T14:15:25.031Z,22.85
2023-01-29T14:18:19.553Z,20.75
2023-01-29T14:21:23.331Z,21.27
2023-01-29T14:23:52.457Z,20.42
2023-01-29T14:26:43.650Z,19.27
2023-01-29T14:29:18.741Z,19.95
2023-01-29T14:32:06.418Z,28.13
2023-01-29T14:34:34.486Z,23.53
2023-01-29T14:37:21.872Z,17.63
2023-01-29T14:39:51.039Z,19.92
2023-01-29T14:42:40.084Z,19.75
2023-01-29T14:45:30.816Z,21.85
2023-01-29T14:48:15.715Z,24.00
2023-01-29T14:50:47.673Z,23.15
2023-01-29T14:53:36.387Z,21.77
2023-01-29T14:56:15.150Z,22.65
2023-01-29T14:58:56.285Z,20.60
2023-01-29T15:01:35.100Z,21.43
2023-01-29T15:04:17.984Z,21.42
2023-01-29T15:06:48.845Z,19.83
2023-01-29T15:09:36.340Z,18.55
2023-01-29T15:12:21.548Z,18.20
2023-01-29T15:14:52.291Z,19.30
2023-01-29T15:17:25.148Z,24.50
2023-01-29T15:19:53.756Z,18.67
2023-01-29T15:22:22.107Z,21.95
2023-01-29T15:25:04.325Z,21.85
2023-01-29T15:27:31.144Z,20.57
2023-01-29T15:30:05.997Z,18.35
2023-01-29T15:32:36.789Z,21.33
2023-01-29T15:35:43.813Z,21.73
2023-01-29T15:38:22.039Z,19.73
2023-01-29T15:40:57.391Z,23.47
2023-01-29T15:43:28.164Z,20.92
2023-01-29T15:45:59.388Z,23.73
2023-01-29T15:48:36.241Z,19.60
2023-01-29T15:51:07.221Z,20.00
2023-01-29T15:53:41.137Z,18.33
2023-01-29T15:56:12.952Z,20.85
2023-01-29T15:58:40.263Z,23.58
2023-01-29T16:01:07.092Z,20.42
2023-01-29T16:03:36.105Z,20.55
2023-01-29T16:06:02.969Z,19.83
2023-01-29T16:08:30.055Z,23.02
2023-01-29T16:10:59.490Z,21.13
2023-01-29T16:13:29.185Z,19.33
2023-01-29T16:16:01.607Z,19.63
2023-01-29T16:18:38.297Z,18.73
2023-01-29T16:21:15.626Z,18.15
2023-01-29T16:23:45.764Z,18.92
2023-01-29T16:26:17.862Z,22.17
2023-01-29T16:28:46.052Z,21.65
2023-01-29T16:31:20.508Z,17.07
2023-01-29T16:33:47.208Z,20.23
2023-01-29T16:36:20.411Z,19.02
2023-01-29T16:39:02.879Z,21.23
2023-01-29T16:41:37.481Z,21.70
2023-01-29T16:44:31.952Z,23.77
2023-01-29T16:47:10.935Z,18.83
2023-01-29T16:49:37.376Z,22.08
2023-01-29T16:52:24.309Z,22.58
2023-01-29T16:54:51.393Z,19.95
2023-01-29T16:57:27.700Z,18.20
2023-01-29T16:59:57.157Z,20.75
2023-01-29T17:02:33.348Z,20.08
2023-01-29T17:05:08.020Z,27.25
2023-01-29T17:07:36.596Z,23.70
2023-01-29T17:10:05.432Z,25.80
2023-01-29T17:12:33.543Z,23.17
2023-01-29T17:15:03.924Z,24.50
2023-01-29T17:17:36.044Z,23.67
2023-01-29T17:20:16.502Z,25.52
2023-01-29T17:22:44.650Z,19.63
2023-01-29T17:25:15.969Z,23.73
2023-01-29T17:27:45.357Z,31.55
2023-01-29T17:30:20.474Z,22.60
2023-01-29T17:32:47.414Z,22.20
2023-01-29T17:35:16.808Z,22.93
2023-01-29T17:37:44.278Z,24.52
2023-01-29T17:40:39.423Z,26.85
2023-01-29T17:43:06.908Z,23.40
2023-01-29T17:45:33.907Z,23.75
2023-01-29T17:48:00.406Z,30.83
2023-01-29T17:50:29.787Z,27.88
2023-01-29T17:52:56.244Z,26.38
2023-01-29T17:55:22.942Z,24.35
2023-01-29T17:57:49.693Z,25.02
2023-01-29T18:00:19.705Z,27.07
2023-01-29T18:02:46.699Z,25.85
2023-01-29T18:05:14.248Z,30.33
2023-01-29T18:07:43.384Z,27.38
2023-01-29T18:10:18.898Z,28.60
2023-01-29T18:12:45.779Z,29.27
2023-01-29T18:15:12.789Z,24.67
2023-01-29T18:17:40.385Z,43.42
2023-01-29T18:20:20.683Z,30.13
2023-01-29T18:22:47.496Z,27.73
2023-01-29T18:25:14.605Z,28.93
2023-01-29T18:27:41.344Z,28.52
2023-01-29T18:30:11.020Z,25.95
2023-01-29T18:32:37.613Z,28.10
2023-01-29T18:35:06.110Z,29.05
2023-01-29T18:37:33.208Z,27.43
2023-01-29T18:39:59.601Z,22.58
2023-01-29T18:42:26.075Z,25.83
2023-01-29T18:44:52.664Z,28.08
2023-01-29T18:47:19.411Z,34.08
2023-01-29T18:49:46.028Z,23.03
2023-01-29T18:52:12.537Z,24.33
2023-01-29T18:54:38.914Z,25.73
2023-01-29T18:57:14.511Z,28.60
2023-01-29T18:59:51.821Z,27.35
2023-01-29T19:02:19.405Z,26.63
2023-01-29T19:04:46.346Z,29.17
2023-01-29T19:07:14.784Z,28.95
2023-01-29T19:09:42.106Z,25.50
2023-01-29T19:12:08.628Z,24.77
2023-01-29T19:14:35.105Z,29.50
2023-01-29T19:17:01.659Z,29.65
2023-01-29T19:19:29.811Z,35.03
2023-01-29T19:21:56.388Z,27.63
2023-01-29T19:24:23.187Z,28.40
2023-01-29T19:26:50.590Z,24.47
2023-01-29T19:29:17.634Z,26.67
2023-01-29T19:31:44.186Z,27.35
2023-01-29T19:34:10.699Z,23.65
2023-01-29T19:36:37.323Z,22.10
2023-01-29T19:39:04.175Z,37.10
2023-01-29T19:41:30.783Z,27.88
2023-01-29T19:43:57.194Z,24.20
2023-01-29T19:46:23.691Z,24.73
2023-01-29T19:48:50.529Z,26.60
2023-01-29T19:51:17.092Z,27.37
2023-01-29T19:53:46.217Z,25.80
2023-01-29T19:56:15.575Z,22.58
2023-01-29T19:58:42.610Z,25.33
2023-01-29T20:01:18.264Z,25.95
2023-01-29T20:03:46.555Z,22.23
2023-01-29T20:06:15.370Z,23.42
2023-01-29T20:08:42.313Z,23.33
2023-01-29T20:11:09.810Z,25.88
2023-01-29T20:13:36.227Z,25.52
2023-01-29T20:16:03.864Z,23.57
2023-01-29T20:18:30.467Z,22.52
2023-01-29T20:20:57.086Z,29.27
2023-01-29T20:23:36.741Z,23.02
2023-01-29T20:26:05.222Z,27.60
2023-01-29T20:28:31.792Z,25.10
2023-01-29T20:30:59.020Z,29.20
2023-01-29T20:33:26.469Z,28.40
2023-01-29T20:36:04.811Z,26.77
2023-01-29T20:38:31.778Z,29.40
2023-01-29T20:41:23.564Z,29.40
2023-01-29T20:43:50.933Z,24.55
2023-01-29T20:46:18.144Z,25.13
2023-01-29T20:48:44.591Z,21.35
2023-01-29T20:51:15.332Z,27.60
2023-01-29T20:53:45.526Z,23.57
2023-01-29T20:56:13.454Z,25.92
2023-01-29T20:58:43.543Z,25.15
2023-01-29T21:01:16.491Z,27.98
2023-01-29T21:03:43.317Z,29.52
2023-01-29T21:06:11.416Z,25.33
2023-01-29T21:08:38.868Z,30.50
2023-01-29T21:11:06.838Z,25.42
2023-01-29T21:13:33.731Z,25.08
2023-01-29T21:16:00.348Z,26.13
2023-01-29T21:18:26.785Z,30.53
2023-01-29T21:20:53.977Z,24.38
2023-01-29T21:23:20.946Z,28.80
2023-01-29T21:25:48.060Z,28.45
2023-01-29T21:28:15.893Z,27.10
2023-01-29T21:30:42.503Z,29.87
2023-01-29T21:33:09.154Z,24.98
2023-01-29T21:35:37.776Z,32.25
2023-01-29T21:38:07.636Z,29.25
2023-01-29T21:40:34.176Z,21.35
2023-01-29T21:43:13.803Z,27.77
2023-01-29T21:45:40.870Z,23.95
2023-01-29T21:48:09.011Z,30.90
2023-01-29T21:50:36.239Z,28.17
2023-01-29T21:53:03.117Z,24.70
2023-01-29T21:55:30.764Z,26.93
2023-01-29T21:57:57.512Z,27.33
2023-01-29T22:00:24.104Z,25.27
2023-01-29T22:02:56.276Z,25.60
2023-01-29T22:05:24.043Z,22.92
2023-01-29T22:07:51.205Z,30.93
2023-01-29T22:10:21.793Z,26.65
2023-01-29T22:12:48.454Z,26.92
2023-01-29T22:15:17.971Z,25.95
2023-01-29T22:17:44.533Z,23.77
2023-01-29T22:20:16.550Z,23.73
2023-01-29T22:22:43.428Z,29.38
2023-01-29T22:25:15.673Z,34.75
2023-01-29T22:27:42.106Z,24.77
2023-01-29T22:30:09.306Z,23.98
2023-01-29T22:32:35.861Z,25.67
2023-01-29T22:35:02.295Z,29.05
2023-01-29T22:37:30.206Z,29.65
2023-01-29T22:39:56.613Z,24.42
2023-01-29T22:42:23.110Z,36.45
2023-01-29T22:44:50.191Z,26.63
2023-01-29T22:47:16.695Z,24.90
2023-01-29T22:49:45.538Z,26.25
2023-01-29T22:52:12.348Z,25.23
2023-01-29T22:54:40.957Z,26.45
2023-01-29T22:57:10.457Z,24.80
2023-01-29T22:59:37.411Z,27.23
2023-01-29T23:02:04.556Z,30.80
2023-01-29T23:04:31.167Z,25.45
2023-01-29T23:06:57.689Z,22.08
2023-01-29T23:09:24.357Z,28.83
2023-01-29T23:11:50.993Z,24.73
2023-01-29T23:14:17.602Z,30.30
2023-01-29T23:16:44.139Z,23.42
2023-01-29T23:19:12.092Z,26.98
2023-01-29T23:21:39.522Z,24.20
2023-01-29T23:24:07.315Z,27.67
2023-01-29T23:26:52.867Z,22.00
2023-01-29T23:29:20.648Z,24.90
2023-01-29T23:31:47.324Z,22.63
2023-01-29T23:34:14.269Z,21.20
2023-01-29T23:36:41.116Z,24.92
2023-01-29T23:39:07.896Z,27.00
2023-01-29T23:41:34.459Z,24.98
2023-01-29T23:44:00.989Z,19.33
2023-01-29T23:46:27.556Z,19.90
2023-01-29T23:48:54.161Z,24.05
2023-01-29T23:51:20.604Z,26.52
2023-01-29T23:53:47.075Z,25.83
2023-01-29T23:56:13.706Z,24.45
2023-01-29T23:58:40.332Z,23.77
